Time;durP1;ratioP1;P1;durP2;ratioP2;P2;SDS_P1;SDS_P2;PMS_P1;PMS_P2;Temp;Humidity;BMP_temperature;BMP_pressure;BME280_temperature;BME280_humidity;BME280_pressure;Samples;Min_cycle;Max_cycle;Signal;HPM_P1;HPM_P2
2022/01/18 00:04:30;;;;;;;17.70;6.70;;;;;;;-0.98;99.01;101699.52;3521024;82;98970;-83
2022/01/18 00:09:28;;;;;;;18.90;4.87;;;;;;;-0.99;99.09;101708.16;3514807;82;99059;-82
2022/01/18 00:14:43;;;;;;;14.30;4.30;;;;;;;-1.01;98.94;101717.61;3512718;82;98869;-83
2022/01/18 00:19:39;;;;;;;16.70;3.73;;;;;;;-1.02;99.04;101722.75;3517517;82;99071;-83
2022/01/18 00:24:36;;;;;;;20.60;4.72;;;;;;;-1.02;99.31;101737.61;3522417;82;98961;-83
2022/01/18 00:29:42;;;;;;;14.53;3.53;;;;;;;-1.05;99.38;101736.25;3514090;81;98905;-83
2022/01/18 00:34:41;;;;;;;16.40;3.72;;;;;;;-1.04;99.44;101737.87;3527527;82;99022;-84
2022/01/18 00:39:42;;;;;;;21.77;5.35;;;;;;;-1.05;99.49;101732.75;3535794;81;99035;-83
2022/01/18 00:44:43;;;;;;;14.87;3.33;;;;;;;-1.04;99.67;101742.48;3575816;81;98868;-83
2022/01/18 00:49:46;;;;;;;18.20;4.60;;;;;;;-1.05;99.73;101743.56;3537252;81;99184;-83
2022/01/18 00:54:47;;;;;;;17.82;4.70;;;;;;;-1.06;99.77;101746.80;3564344;81;98976;-83
2022/01/18 00:59:48;;;;;;;14.43;4.20;;;;;;;-1.08;99.67;101740.86;3563654;81;99253;-83
2022/01/18 01:04:49;;;;;;;14.80;3.83;;;;;;;-1.09;99.69;101751.92;3570561;80;99645;-83
2022/01/18 01:09:51;;;;;;;12.07;3.13;;;;;;;-1.09;99.69;101751.92;3561562;81;99039;-83
2022/01/18 01:14:56;;;;;;;12.07;3.70;;;;;;;-1.11;99.78;101773.00;3577245;81;98876;-83
2022/01/18 01:36:07;;;;;;;16.93;3.85;;;;;;;-1.21;99.99;101798.08;3550482;80;99055;-83
2022/01/18 01:46:11;;;;;;;20.62;4.25;;;;;;;-1.26;100.00;101793.21;3570002;81;32241;-83
2022/01/18 01:51:12;;;;;;;13.83;3.83;;;;;;;-1.27;100.00;101804.55;3544974;81;99313;-83
2022/01/18 01:56:13;;;;;;;13.47;4.10;;;;;;;-1.29;100.00;101797.78;3539762;81;99453;-83
2022/01/18 02:01:14;;;;;;;13.03;3.43;;;;;;;-1.31;100.00;101789.14;3569740;80;99710;-82
2022/01/18 02:06:15;;;;;;;13.00;3.60;;;;;;;-1.29;100.00;101788.33;3569140;81;99247;-82
2022/01/18 02:11:16;;;;;;;15.33;4.20;;;;;;;-1.30;100.00;101807.79;3563192;81;99485;-83
2022/01/18 02:26:44;;;;;;;10.25;2.30;;;;;;;-1.32;100.00;101791.02;3573370;81;98987;-83
2022/01/18 02:31:46;;;;;;;12.65;2.70;;;;;;;-1.32;100.00;101801.03;3535792;81;99062;-83
2022/01/18 02:36:47;;;;;;;13.65;2.85;;;;;;;-1.33;100.00;101798.03;3572812;80;98484;-83
2022/01/18 02:41:56;;;;;;;10.08;3.10;;;;;;;-1.34;100.00;101797.23;3550752;81;99113;-83
2022/01/18 02:46:57;;;;;;;17.05;3.30;;;;;;;-1.36;100.00;101798.05;3567088;81;99181;-83
2022/01/18 02:51:58;;;;;;;14.10;3.90;;;;;;;-1.36;100.00;101809.37;3546947;81;99650;-82
2022/01/18 02:57:01;;;;;;;12.13;3.20;;;;;;;-1.38;100.00;101809.64;3572025;81;99101;-83
2022/01/18 03:07:42;;;;;;;14.40;3.10;;;;;;;-1.41;100.00;101816.11;3551753;81;99217;-82
2022/01/18 03:12:44;;;;;;;13.58;2.85;;;;;;;-1.43;100.00;101812.87;3526413;81;99458;-83
2022/01/18 03:17:44;;;;;;;10.40;2.27;;;;;;;-1.44;100.00;101807.17;3560891;81;99529;-83
2022/01/18 03:22:48;;;;;;;12.30;3.37;;;;;;;-1.44;100.00;101816.09;3567929;81;99522;-83
2022/01/18 03:28:04;;;;;;;13.13;2.62;;;;;;;-1.45;100.00;101820.41;3578236;81;33430;-82
2022/01/18 03:33:09;;;;;;;;;;;;;;;-1.45;100.00;101837.95;3550719;81;99222;-83
2022/01/18 03:38:11;;;;;;;9.15;2.35;;;;;;;-1.46;100.00;101824.19;3550373;81;85271;-82
2022/01/18 03:43:13;;;;;;;13.98;2.42;;;;;;;-1.48;100.00;101847.39;3513346;82;99106;-82
2022/01/18 03:48:35;;;;;;;13.73;2.73;;;;;;;-1.48;100.00;101846.59;3507003;82;99267;-83
2022/01/18 03:53:34;;;;;;;13.25;2.98;;;;;;;-1.50;100.00;101847.37;3518357;82;99148;-82
2022/01/18 03:58:34;;;;;;;12.85;3.72;;;;;;;-1.51;100.00;101867.36;3525930;82;99283;-83
2022/01/18 04:03:35;;;;;;;11.50;2.53;;;;;;;-1.53;100.00;101879.75;3515532;82;25911;-83
2022/01/18 04:08:36;;;;;;;19.12;4.87;;;;;;;-1.53;100.00;101876.27;3511262;82;99203;-83
2022/01/18 04:13:37;;;;;;;18.60;3.00;;;;;;;-1.53;100.00;101871.66;3498691;82;99299;-83
2022/01/18 04:19:20;;;;;;;16.80;3.03;;;;;;;-1.53;100.00;101878.96;3525722;81;99343;-83
2022/01/18 04:29:14;;;;;;;12.30;2.22;;;;;;;-1.52;100.00;101873.83;3512618;82;99588;-83
2022/01/18 04:34:15;;;;;;;17.67;2.63;;;;;;;-1.50;100.00;101873.02;3519462;82;26303;-83
2022/01/18 04:39:16;;;;;;;9.77;2.37;;;;;;;-1.49;100.00;101882.22;3520871;82;98981;-82
2022/01/18 04:48:25;;;;;;;18.23;2.80;;;;;;;-1.47;100.00;101890.06;3516260;82;98842;-83
2022/01/18 04:49:20;;;;;;;15.13;2.75;;;;;;;-1.43;100.00;101912.22;3511599;82;99412;-83
2022/01/18 04:54:28;;;;;;;12.87;2.43;;;;;;;-1.41;100.00;101908.73;3516377;82;99188;-82
2022/01/18 04:59:24;;;;;;;16.82;2.55;;;;;;;-1.38;100.00;101915.50;3510736;82;99216;-82
2022/01/18 05:04:25;;;;;;;13.53;2.53;;;;;;;-1.36;100.00;101923.62;3516728;82;103799;-83
2022/01/18 05:09:26;;;;;;;15.20;2.93;;;;;;;-1.35;100.00;101918.48;3514954;82;99010;-82
2022/01/18 05:19:48;;;;;;;17.73;2.83;;;;;;;-1.32;100.00;101928.75;3515172;81;99273;-82
2022/01/18 05:24:45;;;;;;;20.77;3.80;;;;;;;-1.31;100.00;101934.98;3519254;82;99211;-83
2022/01/18 05:29:45;;;;;;;13.00;2.47;;;;;;;-1.30;100.00;101944.70;3509772;82;99102;-83
2022/01/18 05:34:48;;;;;;;9.97;2.80;;;;;;;-1.30;100.00;101956.33;3504303;82;99248;-83
2022/01/18 05:39:49;;;;;;;9.80;2.65;;;;;;;-1.32;100.00;101960.36;3543175;81;98965;-83
2022/01/18 05:44:50;;;;;;;21.17;4.03;;;;;;;-1.33;100.00;101965.46;3585688;81;98928;-82
2022/01/18 05:49:51;;;;;;;16.95;2.98;;;;;;;-1.35;100.00;101965.74;3581539;81;99305;-83
2022/01/18 05:54:52;;;;;;;16.63;3.27;;;;;;;-1.35;100.00;101971.14;3583901;81;99212;-82
2022/01/18 06:00:00;;;;;;;12.30;3.20;;;;;;;-1.35;100.00;101976.55;3575149;81;99212;-83
2022/01/18 06:10:15;;;;;;;15.23;4.72;;;;;;;-1.34;100.00;102001.12;3592144;81;98906;-82
2022/01/18 06:15:16;;;;;;;17.07;3.63;;;;;;;-1.31;100.00;102009.24;3592625;81;98910;-83
2022/01/18 06:20:17;;;;;;;18.57;3.57;;;;;;;-1.27;100.00;102016.55;3581276;81;99125;-82
2022/01/18 06:25:20;;;;;;;17.77;3.30;;;;;;;-1.20;100.00;102023.09;3590689;81;99264;-83
2022/01/18 06:30:21;;;;;;;21.68;6.55;;;;;;;-1.12;100.00;102028.81;3573025;81;99188;-82
2022/01/18 06:35:21;;;;;;;20.57;5.77;;;;;;;-1.05;100.00;102029.95;3591480;81;99129;-83
2022/01/18 06:40:22;;;;;;;25.03;4.30;;;;;;;-0.96;100.00;102046.75;3567360;81;99580;-83
2022/01/18 06:45:24;;;;;;;27.53;5.80;;;;;;;-0.89;100.00;102036.52;3555128;81;98868;-83
2022/01/18 06:50:25;;;;;;;18.90;5.43;;;;;;;-0.80;100.00;102042.23;3569707;81;99026;-83
2022/01/18 06:55:26;;;;;;;27.47;4.97;;;;;;;-0.70;100.00;102053.09;3563463;81;99106;-83
2022/01/18 07:00:27;;;;;;;33.57;9.53;;;;;;;-0.63;100.00;102060.42;3551441;80;98992;-83
2022/01/18 07:05:28;;;;;;;25.70;6.80;;;;;;;-0.56;100.00;102069.13;3581152;81;99020;-83
2022/01/18 07:10:31;;;;;;;22.27;7.30;;;;;;;-0.48;100.00;102075.38;3544357;81;98964;-83
2022/01/18 07:15:32;;;;;;;26.60;7.87;;;;;;;-0.42;100.00;102095.95;3578127;81;25692;-83
2022/01/18 07:20:33;;;;;;;19.97;7.53;;;;;;;-0.37;100.00;102089.48;3545569;80;98956;-83
2022/01/18 07:25:35;;;;;;;20.23;7.77;;;;;;;-0.30;100.00;102104.13;3492847;82;99079;-83
2022/01/18 07:30:38;;;;;;;20.37;7.67;;;;;;;-0.26;100.00;102112.00;3444323;84;99143;-83
2022/01/18 07:35:40;;;;;;;21.25;7.62;;;;;;;-0.21;100.00;102100.64;3453854;83;98950;-83
2022/01/18 07:40:44;;;;;;;21.75;8.05;;;;;;;-0.15;100.00;102106.90;3567742;81;99104;-83
2022/01/18 07:45:47;;;;;;;30.12;8.53;;;;;;;-0.12;100.00;102117.17;3584164;81;32736;-83
2022/01/18 07:50:48;;;;;;;22.52;8.00;;;;;;;-0.08;100.00;102134.52;3584986;81;99238;-83
2022/01/18 07:55:49;;;;;;;24.37;9.40;;;;;;;-0.02;100.00;102138.87;3590829;80;99536;-83
2022/01/18 08:00:50;;;;;;;27.93;8.80;;;;;;;0.01;100.00;102147.27;3572791;81;99273;-83
2022/01/18 08:05:52;;;;;;;22.10;7.43;;;;;;;0.05;100.00;102152.44;3583670;81;98826;-83
2022/01/18 08:10:53;;;;;;;21.13;8.13;;;;;;;0.06;100.00;102168.94;3573350;81;98940;-83
2022/01/18 08:16:10;;;;;;;28.10;9.00;;;;;;;0.11;100.00;102168.17;3591779;81;25606;-83
2022/01/18 08:21:00;;;;;;;22.67;8.85;;;;;;;0.18;100.00;102174.14;3582745;81;98902;-83
2022/01/18 08:26:01;;;;;;;21.90;8.00;;;;;;;0.24;100.00;102171.16;3575824;81;98702;-83
2022/01/18 08:31:03;;;;;;;23.70;8.47;;;;;;;0.27;100.00;102181.47;3573973;81;98955;-83
2022/01/18 08:36:06;;;;;;;27.07;8.47;;;;;;;0.33;100.00;102189.87;3578875;81;98836;-83
2022/01/18 08:41:07;;;;;;;29.85;8.60;;;;;;;0.36;100.00;102189.89;3574685;80;98797;-83
2022/01/18 08:46:08;;;;;;;28.73;10.13;;;;;;;0.37;100.00;102185.56;3580464;81;26519;-84
2022/01/18 08:51:10;;;;;;;25.97;9.10;;;;;;;0.42;100.00;102184.76;3564259;80;99021;-84
2022/01/18 08:56:10;;;;;;;23.73;8.43;;;;;;;0.47;100.00;102199.67;3549154;81;98739;-84
2022/01/18 09:01:12;;;;;;;20.93;8.20;;;;;;;0.53;100.00;102201.30;3570921;81;99159;-84
2022/01/18 09:06:15;;;;;;;21.20;8.10;;;;;;;0.58;100.00;102211.62;3550438;81;98792;-84
2022/01/18 09:11:16;;;;;;;29.40;10.35;;;;;;;0.62;100.00;102222.74;3557188;81;98851;-84
2022/01/18 09:16:20;;;;;;;32.33;9.07;;;;;;;0.65;100.00;102220.83;3574720;81;25979;-84
2022/01/18 09:21:21;;;;;;;23.40;8.70;;;;;;;0.67;100.00;102233.03;3557003;81;98925;-84
2022/01/18 09:26:22;;;;;;;28.60;12.03;;;;;;;0.73;100.00;102248.78;3578426;81;98650;-84
2022/01/18 09:31:23;;;;;;;30.57;9.90;;;;;;;0.80;100.00;102254.75;3558880;81;99030;-84
2022/01/18 09:36:23;;;;;;;28.17;10.83;;;;;;;0.86;100.00;102256.39;3550683;81;98838;-84
2022/01/18 09:41:32;;;;;;;32.70;10.40;;;;;;;0.97;100.00;102266.16;3572746;81;99062;-85
2022/01/18 09:46:29;;;;;;;32.05;12.10;;;;;;;1.03;100.00;102284.89;3571806;81;99026;-84
2022/01/18 09:51:30;;;;;;;27.07;8.13;;;;;;;1.10;100.00;102278.66;3575664;81;98896;-84
2022/01/18 09:56:31;;;;;;;19.77;7.87;;;;;;;1.16;100.00;102295.77;3555795;81;99003;-84
2022/01/18 10:01:32;;;;;;;25.50;9.57;;;;;;;1.25;100.00;102285.98;3562119;80;98896;-84
2022/01/18 10:06:33;;;;;;;26.93;8.77;;;;;;;1.32;100.00;102287.36;3573202;81;98848;-84
2022/01/18 10:11:34;;;;;;;26.57;8.43;;;;;;;1.37;100.00;102294.14;3547552;81;98824;-84
2022/01/18 10:16:37;;;;;;;30.07;8.60;;;;;;;1.41;100.00;102306.62;3555181;81;98154;-84
2022/01/18 10:21:46;;;;;;;21.83;8.63;;;;;;;1.39;100.00;102306.09;3534273;81;98768;-84
2022/01/18 10:26:46;;;;;;;29.10;9.90;;;;;;;1.49;100.00;102308.25;3563579;81;98696;-84
2022/01/18 10:37:01;;;;;;;33.63;9.78;;;;;;;1.75;100.00;102294.94;3568058;80;98995;-84
2022/01/18 10:42:39;;;;;;;30.73;9.87;;;;;;;1.79;100.00;102299.28;3556619;81;98811;-84
2022/01/18 10:47:59;;;;;;;31.68;10.72;;;;;;;1.83;100.00;102302.55;3563790;81;98808;-86
2022/01/18 10:53:22;;;;;;;31.90;9.90;;;;;;;1.95;100.00;102314.46;3554654;81;99020;-85
2022/01/18 10:58:23;;;;;;;40.80;13.95;;;;;;;1.93;100.00;102307.14;3551584;81;98513;-85
2022/01/18 11:03:26;;;;;;;24.40;9.63;;;;;;;1.88;99.85;102299.83;3579705;81;98641;-85
2022/01/18 11:08:26;;;;;;;21.82;8.75;;;;;;;1.92;100.00;102304.16;3555815;81;98615;-84
2022/01/18 11:13:34;;;;;;;22.83;8.10;;;;;;;1.90;99.58;102305.79;3576818;81;99232;-84
2022/01/18 11:18:31;;;;;;;23.62;9.25;;;;;;;1.85;99.05;102299.01;3554999;81;98656;-84
2022/01/18 11:23:34;;;;;;;22.70;7.72;;;;;;;1.82;99.25;102300.10;3566500;81;98824;-84
2022/01/18 11:28:37;;;;;;;23.10;8.20;;;;;;;1.76;99.14;102301.20;3545826;81;98602;-84
2022/01/18 11:33:41;;;;;;;31.50;10.93;;;;;;;1.71;98.98;102316.92;3574471;81;31457;-84
2022/01/18 11:38:56;;;;;;;29.37;11.73;;;;;;;1.75;99.50;102310.44;3571426;81;98636;-84
2022/01/18 11:43:59;;;;;;;31.60;9.90;;;;;;;1.83;99.67;102299.84;3565589;81;99065;-85
2022/01/18 11:49:18;;;;;;;24.23;9.83;;;;;;;1.90;98.70;102318.01;3526493;81;98745;-84
2022/01/18 11:54:35;;;;;;;23.67;10.10;;;;;;;1.98;98.65;102328.30;3549475;81;99044;-84
2022/01/18 11:59:39;;;;;;;24.85;8.35;;;;;;;2.12;98.61;102321.76;3549304;81;98841;-84
2022/01/18 12:04:49;;;;;;;28.42;11.85;;;;;;;2.20;98.55;102326.65;3539492;81;98769;-85
2022/01/18 12:09:49;;;;;;;21.70;9.28;;;;;;;2.16;97.93;102333.18;3542209;81;98708;-84
2022/01/18 12:14:49;;;;;;;24.67;8.87;;;;;;;2.06;97.49;102320.14;3548036;81;98486;-85
2022/01/18 12:19:50;;;;;;;23.00;8.80;;;;;;;1.95;97.20;102322.61;3544308;81;98594;-84
2022/01/18 12:25:15;;;;;;;29.20;12.00;;;;;;;1.87;97.47;102328.05;3562358;81;99083;-85
2022/01/18 12:30:40;;;;;;;26.27;11.70;;;;;;;1.79;97.68;102314.20;3457459;84;98934;-84
2022/01/18 12:35:30;;;;;;;22.07;9.70;;;;;;;1.73;97.90;102322.09;3532832;81;98797;-84
2022/01/18 12:40:34;;;;;;;33.30;10.80;;;;;;;1.70;97.83;102324.01;3533633;81;98813;-85
2022/01/18 12:45:36;;;;;;;20.80;8.55;;;;;;;1.69;97.79;102326.45;3579224;80;32967;-84
2022/01/18 12:50:45;;;;;;;22.42;9.83;;;;;;;1.71;98.02;102322.36;3561638;81;98818;-84
2022/01/18 12:55:58;;;;;;;37.70;13.43;;;;;;;1.70;97.58;102327.52;3562416;81;99035;-84
2022/01/18 13:01:12;;;;;;;29.57;11.80;;;;;;;1.67;98.27;102335.39;3558619;81;99216;-84
2022/01/18 13:06:18;;;;;;;35.80;12.60;;;;;;;1.62;98.00;102339.46;3569839;81;98848;-84
2022/01/18 13:11:23;;;;;;;28.33;10.90;;;;;;;1.64;98.40;102349.52;3557531;81;99025;-85
2022/01/18 13:26:53;;;;;;;30.08;11.83;;;;;;;1.70;97.62;102347.88;3565666;81;98845;-84
2022/01/18 13:32:12;;;;;;;32.25;11.48;;;;;;;1.65;97.69;102338.37;3545606;81;98601;-84
2022/01/18 13:37:15;;;;;;;22.45;9.78;;;;;;;1.63;97.33;102332.94;3558992;81;98828;-85
2022/01/18 13:42:20;;;;;;;26.23;11.63;;;;;;;1.51;97.49;102335.94;3515941;82;98658;-84
2022/01/18 13:47:22;;;;;;;24.87;11.10;;;;;;;1.46;97.79;102343.25;3494108;83;98975;-83
2022/01/18 13:52:29;;;;;;;29.12;11.55;;;;;;;1.41;97.98;102353.56;3487845;83;98235;-84
2022/01/18 13:57:29;;;;;;;27.73;12.30;;;;;;;1.38;98.25;102354.09;3493026;83;98851;-83
2022/01/18 14:02:34;;;;;;;27.83;11.50;;;;;;;1.36;98.34;102360.34;3503180;83;98684;-83
2022/01/18 14:07:35;;;;;;;30.35;12.28;;;;;;;1.33;98.42;102355.47;3472303;83;99315;-83
2022/01/18 14:12:36;;;;;;;31.17;11.40;;;;;;;1.27;98.53;102346.22;3491037;83;98849;-83
2022/01/18 14:17:37;;;;;;;29.60;10.17;;;;;;;1.23;98.66;102359.52;3499331;83;98754;-83
2022/01/18 14:22:39;;;;;;;29.53;11.33;;;;;;;1.20;98.82;102358.67;3493325;83;98970;-84
2022/01/18 14:27:43;;;;;;;30.25;13.48;;;;;;;1.17;98.88;102356.52;3495910;83;32441;-83
2022/01/18 14:32:45;;;;;;;55.92;20.77;;;;;;;1.12;99.02;102363.28;3486402;83;98703;-83
2022/01/18 14:37:56;;;;;;;70.78;23.10;;;;;;;1.07;99.15;102367.33;3484811;83;98859;-83
2022/01/18 14:43:05;;;;;;;41.40;14.35;;;;;;;1.01;99.33;102362.98;3535139;81;99161;-83
2022/01/18 14:48:14;;;;;;;31.97;13.65;;;;;;;0.94;99.54;102370.53;3581001;81;99371;-83
2022/01/18 14:53:15;;;;;;;57.38;22.05;;;;;;;0.88;99.71;102375.66;3581045;81;98777;-83
2022/01/18 14:58:17;;;;;;;62.90;22.60;;;;;;;0.84;99.91;102378.64;3585629;81;98704;-83
2022/01/18 15:03:17;;;;;;;48.83;18.83;;;;;;;0.76;100.00;102371.53;3579948;80;98638;-83
2022/01/18 15:08:22;;;;;;;39.25;17.60;;;;;;;0.70;100.00;102380.73;3553429;81;98883;-83
2022/01/18 15:13:22;;;;;;;35.30;18.37;;;;;;;0.59;100.00;102376.34;3590462;81;98990;-83
2022/01/18 15:18:25;;;;;;;43.47;19.73;;;;;;;0.50;100.00;102376.58;3593973;80;99063;-83
2022/01/18 15:23:25;;;;;;;40.48;17.27;;;;;;;0.39;100.00;102381.11;3589344;81;98961;-83
2022/01/18 15:28:26;;;;;;;44.00;20.37;;;;;;;0.27;100.00;102375.09;3574727;81;99108;-83
2022/01/18 15:33:27;;;;;;;84.17;39.37;;;;;;;0.16;100.00;102378.80;3583767;81;97890;-83
2022/01/18 15:38:28;;;;;;;77.77;33.80;;;;;;;0.08;100.00;102393.37;3569570;81;98833;-83
2022/01/18 15:43:29;;;;;;;57.50;28.30;;;;;;;0.01;100.00;102377.89;3586411;81;99128;-83
2022/01/18 15:48:30;;;;;;;55.90;25.97;;;;;;;0.00;100.00;102380.33;3565832;81;99082;-83
2022/01/18 15:53:31;;;;;;;52.47;23.07;;;;;;;-0.04;100.00;102381.36;3573379;81;99065;-83
2022/01/18 15:58:33;;;;;;;44.30;20.30;;;;;;;-0.12;100.00;102379.14;3566524;81;98831;-83
2022/01/18 16:03:34;;;;;;;51.33;21.63;;;;;;;-0.22;100.00;102381.49;3572033;81;99031;-84
2022/01/18 16:08:36;;;;;;;58.45;24.05;;;;;;;-0.22;100.00;102375.52;3550022;81;98969;-84
2022/01/18 16:13:38;;;;;;;64.70;29.43;;;;;;;-0.26;100.00;102388.75;3580308;81;99257;-84
2022/01/18 16:18:38;;;;;;;64.67;28.47;;;;;;;-0.35;100.00;102384.08;3557537;81;99196;-84
2022/01/18 16:23:41;;;;;;;52.90;25.23;;;;;;;-0.36;100.00;102386.52;3566536;81;99218;-84
2022/01/18 16:28:42;;;;;;;59.03;27.80;;;;;;;-0.32;100.00;102389.80;3565889;81;99271;-84
2022/01/18 16:33:43;;;;;;;59.70;31.23;;;;;;;-0.33;100.00;102378.42;3572103;81;26027;-84
2022/01/18 16:38:43;;;;;;;49.60;23.60;;;;;;;-0.34;100.00;102376.23;3555747;81;99005;-84
2022/01/18 16:43:44;;;;;;;49.00;23.37;;;;;;;-0.32;100.00;102370.05;3574068;81;99127;-84
2022/01/18 16:48:45;;;;;;;48.03;21.63;;;;;;;-0.29;100.00;102369.52;3586929;81;99731;-84
2022/01/18 16:53:47;;;;;;;45.35;17.05;;;;;;;-0.32;100.00;102362.73;3598786;81;99246;-84
2022/01/18 16:58:50;;;;;;;40.63;17.63;;;;;;;-0.36;100.00;102368.38;3566871;81;99375;-84
2022/01/18 17:03:52;;;;;;;45.53;18.43;;;;;;;-0.36;100.00;102375.70;3593398;80;26244;-84
2022/01/18 17:08:52;;;;;;;48.38;20.20;;;;;;;-0.33;100.00;102373.02;3565657;81;99705;-84
2022/01/18 17:13:54;;;;;;;42.63;16.67;;;;;;;-0.37;100.00;102370.81;3588302;81;99539;-84
2022/01/18 17:18:55;;;;;;;52.47;18.67;;;;;;;-0.40;100.00;102362.95;3567436;81;99459;-84
2022/01/18 17:23:57;;;;;;;41.47;15.13;;;;;;;-0.43;100.00;102363.45;3589580;81;99199;-84
2022/01/18 17:28:58;;;;;;;35.93;15.43;;;;;;;-0.45;100.00;102355.59;3582543;81;99246;-85
2022/01/18 17:33:58;;;;;;;38.77;17.47;;;;;;;-0.55;100.00;102347.93;3592218;81;33003;-84
2022/01/18 17:38:59;;;;;;;47.33;18.50;;;;;;;-0.63;100.00;102368.14;3582978;80;99430;-84
2022/01/18 17:44:01;;;;;;;40.63;18.10;;;;;;;-0.68;100.00;102372.14;3580419;81;98977;-84
2022/01/18 17:49:03;;;;;;;48.07;18.67;;;;;;;-0.70;100.00;102357.24;3532923;81;98913;-85
2022/01/18 17:54:04;;;;;;;45.70;19.23;;;;;;;-0.76;100.00;102359.63;3564150;81;99583;-85
2022/01/18 17:59:05;;;;;;;48.03;19.83;;;;;;;-0.83;100.00;102359.02;3540982;81;99286;-85
2022/01/18 18:04:06;;;;;;;41.20;17.33;;;;;;;-0.90;100.00;102336.75;3574091;81;33088;-84
2022/01/18 18:09:06;;;;;;;45.57;18.97;;;;;;;-0.90;100.00;102336.75;3568067;81;99334;-84
2022/01/18 18:14:07;;;;;;;56.33;22.37;;;;;;;-0.94;100.00;102347.81;3580625;81;99303;-85
2022/01/18 18:19:08;;;;;;;80.93;31.80;;;;;;;-1.00;100.00;102345.58;3571073;81;99350;-84
2022/01/18 18:24:11;;;;;;;91.93;36.10;;;;;;;-1.01;100.00;102350.71;3560497;81;99434;-84
2022/01/18 18:29:12;;;;;;;70.83;29.20;;;;;;;-1.01;100.00;102360.69;3552470;81;99441;-84
2022/01/18 18:34:13;;;;;;;45.33;15.33;;;;;;;-1.01;100.00;102365.57;3570739;80;33163;-84
2022/01/18 18:39:18;;;;;;;44.17;13.33;;;;;;;-0.96;100.00;102362.10;3549274;81;99385;-84
2022/01/18 18:44:22;;;;;;;38.03;13.30;;;;;;;-0.89;100.00;102336.51;3573447;81;99245;-84
2022/01/18 18:49:20;;;;;;;40.83;13.85;;;;;;;-0.81;100.00;102329.31;3571187;81;99412;-84
2022/01/18 18:54:21;;;;;;;35.87;13.10;;;;;;;-0.72;100.00;102337.77;3577735;81;99416;-84
2022/01/18 19:04:32;;;;;;;41.00;13.57;;;;;;;-0.56;100.00;102347.66;3574221;81;25948;-84
2022/01/18 19:09:32;;;;;;;37.70;13.40;;;;;;;-0.49;100.00;102353.66;3536490;81;99190;-84
2022/01/18 19:14:35;;;;;;;61.67;20.37;;;;;;;-0.44;100.00;102346.39;3562589;81;99093;-84
2022/01/18 19:19:37;;;;;;;72.27;30.00;;;;;;;-0.38;100.00;102346.74;3554714;81;99210;-84
2022/01/18 19:24:38;;;;;;;73.80;28.60;;;;;;;-0.32;100.00;102349.77;3553536;81;99346;-84
2022/01/18 19:29:38;;;;;;;67.77;29.97;;;;;;;-0.26;100.00;102353.58;3569020;81;99138;-84
2022/01/18 19:34:39;;;;;;;55.47;22.27;;;;;;;-0.17;100.00;102343.66;3572527;81;99093;-84
2022/01/18 19:39:40;;;;;;;41.97;15.77;;;;;;;-0.10;100.00;102344.51;3536000;80;99260;-84
2022/01/18 19:44:41;;;;;;;38.63;16.40;;;;;;;-0.01;100.00;102332.13;3540835;81;98974;-84
2022/01/18 19:49:42;;;;;;;38.10;15.27;;;;;;;0.11;100.00;102321.13;3477102;83;99684;-84
2022/01/18 19:54:42;;;;;;;35.47;12.50;;;;;;;0.21;100.00;102317.92;3492374;83;99339;-84
2022/01/18 19:59:43;;;;;;;32.23;11.68;;;;;;;0.33;100.00;102302.27;3485050;83;99431;-84
2022/01/18 20:04:44;;;;;;;27.97;10.60;;;;;;;0.43;100.00;102300.14;3486556;83;99540;-84
2022/01/18 20:09:45;;;;;;;28.13;10.77;;;;;;;0.52;100.00;102303.98;3484789;82;99030;-83
2022/01/18 20:14:46;;;;;;;25.97;9.60;;;;;;;0.61;100.00;102334.91;3485642;83;98846;-83
2022/01/18 20:19:47;;;;;;;35.93;11.03;;;;;;;0.79;100.00;102346.10;3484498;83;99344;-83
2022/01/18 20:24:48;;;;;;;34.90;13.93;;;;;;;0.79;100.00;102346.10;3485600;83;99555;-83
2022/01/18 20:29:50;;;;;;;31.03;11.27;;;;;;;0.88;100.00;102336.91;3488104;83;99512;-83
2022/01/18 20:34:51;;;;;;;22.77;9.03;;;;;;;0.95;100.00;102296.80;3471726;83;99394;-84
2022/01/18 20:39:53;;;;;;;32.50;10.63;;;;;;;1.01;100.00;102263.20;3481823;83;98609;-85
2022/01/18 20:44:54;;;;;;;25.83;10.00;;;;;;;1.06;100.00;102249.12;3531363;80;98831;-85
2022/01/18 20:49:55;;;;;;;23.85;9.30;;;;;;;1.12;100.00;102266.19;3568848;81;99158;-85
2022/01/18 20:54:56;;;;;;;34.57;11.17;;;;;;;1.16;100.00;102259.95;3586346;81;99302;-84
2022/01/18 20:59:59;;;;;;;33.43;12.93;;;;;;;1.21;100.00;102258.59;3574698;81;99160;-85
2022/01/18 21:05:01;;;;;;;33.53;11.37;;;;;;;1.26;100.00;102259.95;3585110;81;99029;-85
2022/01/18 21:10:03;;;;;;;29.97;11.17;;;;;;;1.29;100.00;102261.31;3564138;81;98693;-85
2022/01/18 21:15:05;;;;;;;25.40;10.30;;;;;;;1.33;100.00;102251.56;3577403;81;99156;-84
2022/01/18 21:20:07;;;;;;;24.32;10.70;;;;;;;1.37;100.00;102247.23;3568599;80;99144;-85
2022/01/18 21:25:10;;;;;;;21.85;9.08;;;;;;;1.43;100.00;102242.07;3576235;81;98989;-84
2022/01/18 21:30:13;;;;;;;22.58;8.85;;;;;;;1.47;100.00;102248.55;3562487;81;99185;-86
2022/01/18 21:35:14;;;;;;;21.02;7.47;;;;;;;1.49;100.00;102232.27;3554216;81;98897;-85
2022/01/18 21:40:15;;;;;;;25.53;8.00;;;;;;;1.54;100.00;102218.70;3560183;81;98504;-84
2022/01/18 21:45:16;;;;;;;33.47;11.73;;;;;;;1.58;100.00;102216.28;3583539;81;98636;-86
2022/01/18 21:50:17;;;;;;;29.43;11.87;;;;;;;1.62;100.00;102211.91;3587929;80;99244;-86
2022/01/18 21:55:18;;;;;;;27.03;10.77;;;;;;;1.64;100.00;102206.48;3578269;81;98890;-86
2022/01/18 22:00:19;;;;;;;23.40;9.77;;;;;;;1.69;100.00;102209.75;3585237;81;99127;-85
2022/01/18 22:05:20;;;;;;;24.20;7.73;;;;;;;1.72;100.00;102203.22;3591145;81;98991;-86
2022/01/18 22:10:21;;;;;;;32.07;9.40;;;;;;;1.76;100.00;102210.27;3575101;81;98821;-86
2022/01/18 22:15:24;;;;;;;23.80;9.10;;;;;;;1.79;100.00;102199.66;3585985;81;98630;-87
2022/01/18 22:20:25;;;;;;;29.50;10.10;;;;;;;1.81;100.00;102194.77;3583531;81;98662;-86
2022/01/18 22:25:26;;;;;;;23.32;9.00;;;;;;;1.86;100.00;102183.09;3580574;81;99055;-86
2022/01/18 22:30:27;;;;;;;23.57;8.10;;;;;;;1.89;100.00;102175.73;3576811;81;98830;-87
2022/01/18 22:35:29;;;;;;;28.80;9.67;;;;;;;1.95;100.00;102169.20;3598809;81;98791;-85
2022/01/18 22:40:34;;;;;;;26.17;9.07;;;;;;;1.97;100.00;102165.12;3582689;81;98705;-84
2022/01/18 22:45:36;;;;;;;24.47;9.90;;;;;;;2.00;100.00;102164.58;3579422;81;98600;-83
2022/01/18 22:50:38;;;;;;;28.42;9.63;;;;;;;2.04;100.00;102156.15;3577929;81;99350;-84
2022/01/18 22:55:39;;;;;;;25.10;7.92;;;;;;;2.09;100.00;102151.23;3547575;81;99513;-83
2022/01/18 23:00:52;;;;;;;24.10;9.20;;;;;;;2.14;100.00;102158.00;3571931;80;99436;-83
2022/01/18 23:05:53;;;;;;;19.80;7.83;;;;;;;2.15;100.00;102143.31;3582466;81;98915;-83
2022/01/18 23:10:57;;;;;;;21.13;8.57;;;;;;;2.17;100.00;102135.16;3553097;81;98810;-84
2022/01/18 23:16:00;;;;;;;28.12;8.73;;;;;;;2.21;100.00;102129.97;3565443;81;33484;-84
2022/01/18 23:21:01;;;;;;;22.62;8.75;;;;;;;2.23;100.00;102134.57;3559863;80;98831;-84
2022/01/18 23:26:02;;;;;;;24.13;8.97;;;;;;;2.27;100.00;102141.08;3569704;81;98717;-84
2022/01/18 23:31:04;;;;;;;24.57;9.90;;;;;;;2.29;100.00;102134.27;3562032;81;98929;-84
2022/01/18 23:36:05;;;;;;;27.43;10.13;;;;;;;2.31;100.00;102135.36;3570244;81;98903;-84
2022/01/18 23:41:23;;;;;;;35.30;12.20;;;;;;;2.30;100.00;102119.59;3548310;81;99210;-84
2022/01/18 23:46:24;;;;;;;24.57;9.63;;;;;;;2.33;100.00;102118.22;3571812;81;33072;-84
2022/01/18 23:51:27;;;;;;;29.72;10.25;;;;;;;2.32;100.00;102104.37;3550529;81;98743;-84
2022/01/18 23:56:28;;;;;;;23.20;9.28;;;;;;;2.31;100.00;102095.96;3558183;81;98915;-84
